5G2 weather

Indian Lake Airport
Central City, Pennsylvania, United States

Public forecast

Using degrees Fahrenheit for public forecast. Weather courtesy of forecast.io.

Closest aviation weather report (METAR) to Indian Lake Airport

Closest report is Somerset County Airport, 7.8 nm (14.4 km) W. Retrieved 2020/07/15 09:35 UTC (0 seconds ago):

K2G9 150935Z AUTO 00000KT 10SM CLR 12/11 A3020 RMK AO2

Closest aviation forecast (TAF) to Indian Lake Airport

Closest forecast is John Murtha Johnstown Cambria County Airport, 15.7 nm (29.1 km) N. Retrieved 2020/07/15 06:30 UTC (3 hours ago):

TAF KJST 150528Z 1506/1606 VRB02KT P6SM SCT250 FM151400 15006KT P6SM FEW040 BKN250